Time;durP1;ratioP1;P1;durP2;ratioP2;P2;SDS_P1;SDS_P2;PMS_P1;PMS_P2;Temp;Humidity;BMP_temperature;BMP_pressure;BME280_temperature;BME280_humidity;BME280_pressure;Samples;Min_cycle;Max_cycle;Signal;HPM_P1;HPM_P2
2023/07/28 00:02:00;;;;;;;3.58;0.98;;;24.40;63.90;;;;;;2522231;54;20984;-68
2023/07/28 00:04:26;;;;;;;2.20;1.10;;;24.40;63.90;;;;;;2291995;55;21669;-68
2023/07/28 00:06:53;;;;;;;1.95;0.95;;;24.40;64.00;;;;;;2527571;54;20993;-68
2023/07/28 00:09:19;;;;;;;2.50;1.10;;;24.40;64.00;;;;;;2292302;56;20995;-68
2023/07/28 00:11:48;;;;;;;2.05;0.93;;;24.40;64.00;;;;;;2289361;56;21510;-69
2023/07/28 00:14:15;;;;;;;2.22;0.90;;;24.40;64.00;;;;;;2291093;55;21371;-69
2023/07/28 00:16:41;;;;;;;1.70;0.77;;;24.40;64.00;;;;;;2291960;55;20904;-68
2023/07/28 00:19:08;;;;;;;1.98;0.90;;;24.40;64.10;;;;;;2527416;54;20921;-68
2023/07/28 00:21:34;;;;;;;3.72;1.00;;;24.30;63.90;;;;;;2291149;55;21044;-68
2023/07/28 00:24:01;;;;;;;2.17;0.90;;;24.40;64.10;;;;;;2521425;54;20977;-71
2023/07/28 00:26:28;;;;;;;1.80;0.73;;;24.40;64.20;;;;;;2276021;55;20992;-69
2023/07/28 00:28:54;;;;;;;1.83;0.90;;;24.30;64.00;;;;;;2525913;54;20984;-69
2023/07/28 00:31:21;;;;;;;1.92;0.82;;;24.40;64.10;;;;;;2526311;54;20912;-67
2023/07/28 00:33:51;;;;;;;2.12;0.77;;;24.30;64.00;;;;;;2524481;54;20969;-67
2023/07/28 00:36:17;;;;;;;2.03;0.70;;;24.40;64.00;;;;;;2516818;54;21594;-69
2023/07/28 00:38:48;;;;;;;2.12;0.80;;;24.40;64.20;;;;;;2277305;55;20928;-69
2023/07/28 00:41:18;;;;;;;2.25;0.98;;;24.40;64.20;;;;;;2527156;54;20928;-68
2023/07/28 00:43:44;;;;;;;2.42;1.17;;;24.30;64.10;;;;;;2289035;55;20962;-69
2023/07/28 00:46:11;;;;;;;2.40;1.20;;;24.30;64.20;;;;;;2494671;55;21049;-69
2023/07/28 00:48:37;;;;;;;1.95;1.00;;;24.30;64.40;;;;;;2277394;55;20985;-68
2023/07/28 00:51:05;;;;;;;5.28;1.05;;;24.30;64.30;;;;;;2282105;55;21005;-67
2023/07/28 00:53:32;;;;;;;1.80;0.80;;;24.30;64.20;;;;;;2525950;54;21004;-67
2023/07/28 00:55:59;;;;;;;1.92;0.88;;;24.20;64.10;;;;;;2291092;55;21011;-67
2023/07/28 00:58:25;;;;;;;2.95;1.00;;;24.30;64.20;;;;;;2274604;55;20897;-68
2023/07/28 01:00:52;;;;;;;1.65;0.90;;;24.30;64.10;;;;;;2291740;55;20948;-68
2023/07/28 01:03:22;;;;;;;2.70;1.00;;;24.30;64.00;;;;;;2500792;54;20981;-68
2023/07/28 01:09:23;;;;;;;2.10;0.98;;;24.20;63.90;;;;;;2292046;55;20975;-68
2023/07/28 01:11:55;;;;;;;2.35;0.90;;;24.20;63.20;;;;;;2273833;55;20966;-69
2023/07/28 01:14:25;;;;;;;1.40;0.50;;;24.20;63.70;;;;;;2293303;55;21004;-68
2023/07/28 01:16:52;;;;;;;1.50;0.68;;;24.20;63.80;;;;;;2292266;55;20928;-67
2023/07/28 01:19:20;;;;;;;2.12;0.80;;;24.10;63.80;;;;;;2292475;55;20896;-67
2023/07/28 01:21:50;;;;;;;1.50;0.65;;;24.10;63.90;;;;;;2527477;54;20908;-68
2023/07/28 01:24:22;;;;;;;1.73;0.80;;;24.10;63.80;;;;;;2528208;54;20995;-69
2023/07/28 01:26:49;;;;;;;1.62;0.75;;;24.10;63.80;;;;;;2527531;54;20968;-68
2023/07/28 01:29:15;;;;;;;3.00;0.80;;;24.00;63.90;;;;;;2528276;54;21463;-67
2023/07/28 01:31:41;;;;;;;1.75;0.90;;;24.00;64.00;;;;;;2527088;54;21560;-68
2023/07/28 01:34:08;;;;;;;1.85;0.90;;;24.00;64.00;;;;;;2291767;55;20996;-67
2023/07/28 01:36:34;;;;;;;3.08;0.80;;;24.00;64.00;;;;;;2527684;54;21065;-68
2023/07/28 01:39:01;;;;;;;1.58;0.70;;;23.90;64.00;;;;;;2292715;55;21047;-67
2023/07/28 01:41:27;;;;;;;1.77;0.77;;;23.90;64.00;;;;;;2509861;54;20937;-68
2023/07/28 01:43:55;;;;;;;1.65;0.73;;;23.90;64.00;;;;;;2518098;54;20980;-67
2023/07/28 01:46:22;;;;;;;2.20;0.80;;;23.90;64.10;;;;;;2527688;54;20976;-67
2023/07/28 01:48:49;;;;;;;1.87;0.90;;;23.80;63.90;;;;;;2526971;54;20988;-68
2023/07/28 01:51:15;;;;;;;1.62;0.80;;;23.80;64.00;;;;;;2527122;54;20952;-67
2023/07/28 01:53:41;;;;;;;1.92;0.80;;;23.80;64.00;;;;;;2291093;55;20988;-67
2023/07/28 01:56:08;;;;;;;2.37;1.00;;;23.80;64.10;;;;;;2527613;54;20948;-69
2023/07/28 01:58:35;;;;;;;2.65;0.90;;;23.80;64.10;;;;;;2292234;55;20933;-69
2023/07/28 02:01:01;;;;;;;1.83;0.80;;;23.70;64.00;;;;;;2291128;55;21750;-68
2023/07/28 02:03:28;;;;;;;1.90;0.70;;;23.70;64.00;;;;;;2526663;54;20956;-68
2023/07/28 02:05:54;;;;;;;1.70;0.80;;;23.70;64.70;;;;;;2526864;54;20924;-68
2023/07/28 02:08:20;;;;;;;1.92;0.80;;;23.70;64.00;;;;;;2291398;56;20984;-68
2023/07/28 02:10:47;;;;;;;1.33;0.60;;;23.60;63.90;;;;;;2290971;55;21003;-69
2023/07/28 02:13:14;;;;;;;3.35;0.90;;;23.60;64.00;;;;;;2292410;55;20932;-70
2023/07/28 02:15:40;;;;;;;3.10;0.90;;;23.60;64.00;;;;;;2525701;54;20915;-68
2023/07/28 02:18:07;;;;;;;1.77;0.80;;;23.60;64.00;;;;;;2292331;55;21028;-67
2023/07/28 02:20:35;;;;;;;1.77;0.80;;;23.50;63.90;;;;;;2527435;54;20961;-67
2023/07/28 02:23:02;;;;;;;1.98;0.80;;;23.50;64.00;;;;;;2280698;55;21857;-68
2023/07/28 02:25:29;;;;;;;1.60;0.80;;;23.50;64.00;;;;;;2284167;55;20929;-68
2023/07/28 02:27:55;;;;;;;1.52;0.70;;;23.50;64.10;;;;;;2291891;55;20987;-70
2023/07/28 02:30:22;;;;;;;1.98;0.90;;;23.50;64.20;;;;;;2294229;55;20952;-67
2023/07/28 02:32:48;;;;;;;2.92;1.15;;;23.40;64.10;;;;;;2502412;54;20979;-68
2023/07/28 02:35:15;;;;;;;2.22;0.90;;;23.40;64.10;;;;;;2292355;55;20948;-68
2023/07/28 02:37:42;;;;;;;1.85;0.93;;;23.40;64.20;;;;;;2292284;56;21015;-70
2023/07/28 02:40:13;;;;;;;2.08;0.95;;;23.40;64.20;;;;;;2526641;54;21048;-67
2023/07/28 02:42:40;;;;;;;2.50;1.00;;;23.40;64.20;;;;;;2291485;55;21699;-67
2023/07/28 02:45:07;;;;;;;1.48;0.80;;;23.30;64.20;;;;;;2291913;56;20904;-68
2023/07/28 02:47:33;;;;;;;3.08;1.20;;;23.30;64.30;;;;;;2291852;55;21554;-67
2023/07/28 02:50:00;;;;;;;2.50;1.00;;;23.30;64.30;;;;;;2526842;54;20932;-68
2023/07/28 02:52:26;;;;;;;2.22;1.17;;;23.30;64.40;;;;;;2292404;55;20972;-69
2023/07/28 02:54:53;;;;;;;2.67;1.10;;;23.30;64.40;;;;;;2291207;55;20928;-69
2023/07/28 02:57:19;;;;;;;2.30;1.05;;;23.30;64.50;;;;;;2527505;54;20913;-70
2023/07/28 02:59:45;;;;;;;2.87;1.20;;;23.30;64.50;;;;;;2291780;55;21062;-68
2023/07/28 03:02:12;;;;;;;2.30;1.10;;;23.30;64.50;;;;;;2522761;54;21046;-67
2023/07/28 03:04:38;;;;;;;1.92;0.75;;;23.30;64.60;;;;;;2272868;55;21007;-68
2023/07/28 03:07:04;;;;;;;3.87;1.00;;;23.30;64.60;;;;;;2527832;54;20960;-68
2023/07/28 03:09:32;;;;;;;3.12;0.95;;;23.30;64.60;;;;;;2527501;54;20948;-70
2023/07/28 03:11:58;;;;;;;2.50;0.98;;;23.30;64.60;;;;;;2527210;54;21655;-68
2023/07/28 03:14:25;;;;;;;3.33;0.80;;;23.30;64.60;;;;;;2289598;55;21041;-68
2023/07/28 03:16:52;;;;;;;2.20;1.00;;;23.30;64.60;;;;;;2508615;54;21072;-69
2023/07/28 03:19:19;;;;;;;2.35;1.00;;;23.30;64.60;;;;;;2292115;55;20948;-68
2023/07/28 03:21:45;;;;;;;2.58;1.00;;;23.40;64.80;;;;;;2527638;54;21369;-67
2023/07/28 03:24:12;;;;;;;2.50;1.20;;;23.40;64.70;;;;;;2292645;55;21005;-68
2023/07/28 03:26:38;;;;;;;2.10;0.90;;;23.40;64.70;;;;;;2291561;55;21409;-69
2023/07/28 03:29:04;;;;;;;1.90;0.80;;;23.40;64.70;;;;;;2292281;56;21468;-68
2023/07/28 03:31:31;;;;;;;1.62;0.75;;;23.40;64.70;;;;;;2528037;54;20940;-68
2023/07/28 03:33:58;;;;;;;1.90;0.95;;;23.40;64.70;;;;;;2283011;55;20933;-70
2023/07/28 03:36:24;;;;;;;2.60;1.20;;;23.40;64.70;;;;;;2283873;55;21390;-68
2023/07/28 03:38:51;;;;;;;2.78;1.10;;;23.40;64.60;;;;;;2527803;54;20956;-67
2023/07/28 03:41:17;;;;;;;2.83;1.02;;;23.40;64.70;;;;;;2293394;55;20952;-68
2023/07/28 03:43:43;;;;;;;2.15;0.90;;;23.40;64.70;;;;;;2292349;55;21749;-68
2023/07/28 03:46:10;;;;;;;2.35;1.10;;;23.40;64.60;;;;;;2292011;55;21033;-66
2023/07/28 03:48:36;;;;;;;2.80;1.17;;;23.40;64.50;;;;;;2527507;54;21421;-67
2023/07/28 03:51:03;;;;;;;3.10;1.02;;;23.40;64.50;;;;;;2526821;54;21516;-67
2023/07/28 03:53:29;;;;;;;2.70;1.10;;;23.30;64.20;;;;;;2292117;56;20937;-68
2023/07/28 03:55:57;;;;;;;2.20;1.00;;;23.40;64.30;;;;;;2292753;55;21502;-68
2023/07/28 03:58:25;;;;;;;2.45;1.00;;;23.30;64.20;;;;;;2528340;54;21449;-68
2023/07/28 04:00:53;;;;;;;2.58;1.00;;;23.30;64.20;;;;;;2527017;54;21718;-68
2023/07/28 04:03:19;;;;;;;2.22;1.10;;;23.20;64.10;;;;;;2500728;54;1516985;-68
2023/07/28 04:05:47;;;;;;;2.17;0.98;;;23.20;64.20;;;;;;2294378;55;20953;-67
2023/07/28 04:08:14;;;;;;;2.50;1.02;;;23.20;64.30;;;;;;2292061;55;21750;-67
2023/07/28 04:10:40;;;;;;;2.65;0.90;;;23.20;64.30;;;;;;2527668;54;20905;-70
2023/07/28 04:13:07;;;;;;;2.25;1.08;;;23.10;64.30;;;;;;2527879;54;20897;-67
2023/07/28 04:15:38;;;;;;;2.35;1.10;;;23.10;64.40;;;;;;2525767;54;20924;-68
2023/07/28 04:18:04;;;;;;;2.20;1.20;;;23.10;64.40;;;;;;2272802;55;20969;-67
2023/07/28 04:20:30;;;;;;;3.37;1.40;;;23.10;64.50;;;;;;2292325;55;21694;-67
2023/07/28 04:22:56;;;;;;;2.30;1.08;;;23.10;64.70;;;;;;2292114;56;20995;-67
2023/07/28 04:25:23;;;;;;;2.40;1.20;;;23.10;64.70;;;;;;2528054;54;20920;-67
2023/07/28 04:27:51;;;;;;;2.30;1.10;;;23.00;64.70;;;;;;2527979;54;20905;-65
2023/07/28 04:30:17;;;;;;;3.17;1.35;;;23.00;64.70;;;;;;2293388;55;21712;-67
2023/07/28 04:32:44;;;;;;;2.22;1.15;;;23.00;64.80;;;;;;2500338;54;20925;-67
2023/07/28 04:35:10;;;;;;;2.00;0.90;;;23.00;64.80;;;;;;2528029;54;20973;-67
2023/07/28 04:37:36;;;;;;;2.70;1.10;;;23.00;64.80;;;;;;2528333;54;21051;-66
2023/07/28 04:40:04;;;;;;;2.25;1.00;;;23.00;64.80;;;;;;2527121;54;21028;-68
2023/07/28 04:42:30;;;;;;;2.65;1.27;;;23.00;64.80;;;;;;2528482;54;20905;-68
2023/07/28 04:44:57;;;;;;;2.90;1.50;;;23.00;64.80;;;;;;2527772;54;21437;-67
2023/07/28 04:47:24;;;;;;;3.55;1.10;;;23.00;64.80;;;;;;2527777;54;20963;-65
2023/07/28 04:49:50;;;;;;;3.58;1.17;;;23.00;64.90;;;;;;2527417;54;20924;-66
2023/07/28 04:52:17;;;;;;;2.53;0.95;;;23.00;64.90;;;;;;2523271;54;20944;-66
2023/07/28 04:54:43;;;;;;;2.58;1.12;;;23.00;64.90;;;;;;2527955;54;21012;-68
2023/07/28 04:57:12;;;;;;;3.28;1.10;;;23.00;64.90;;;;;;2527962;54;21021;-67
2023/07/28 04:59:42;;;;;;;2.20;1.00;;;23.00;64.90;;;;;;2527302;54;21947;-66
2023/07/28 05:02:09;;;;;;;2.47;1.23;;;23.00;64.90;;;;;;2528025;54;20928;-65
2023/07/28 05:04:36;;;;;;;2.75;1.20;;;22.90;64.90;;;;;;2528232;54;21000;-68
2023/07/28 05:07:03;;;;;;;2.58;1.17;;;23.00;65.00;;;;;;2527827;54;20933;-68
2023/07/28 05:09:30;;;;;;;2.80;1.10;;;23.00;65.10;;;;;;2292806;55;20937;-66
2023/07/28 05:11:57;;;;;;;1.65;0.80;;;23.00;65.20;;;;;;2291593;55;21767;-66
2023/07/28 05:14:24;;;;;;;2.40;1.10;;;23.00;65.90;;;;;;2292774;55;20952;-65
2023/07/28 05:16:50;;;;;;;2.10;0.93;;;23.00;65.20;;;;;;2526985;54;20916;-68
2023/07/28 05:19:16;;;;;;;2.10;0.98;;;23.00;65.10;;;;;;2292032;55;20948;-65
2023/07/28 05:21:43;;;;;;;2.30;1.10;;;23.00;65.10;;;;;;2292111;55;20928;-68
2023/07/28 05:24:12;;;;;;;3.47;1.02;;;23.00;65.00;;;;;;2292086;55;20893;-67
2023/07/28 05:26:38;;;;;;;2.87;1.33;;;23.00;64.90;;;;;;2527041;54;20953;-66
2023/07/28 05:29:05;;;;;;;3.83;1.27;;;23.00;64.90;;;;;;2527385;54;20969;-65
2023/07/28 05:31:31;;;;;;;2.78;1.40;;;23.00;65.10;;;;;;2292656;55;20916;-67
2023/07/28 05:33:59;;;;;;;2.60;1.30;;;22.90;65.10;;;;;;2527634;54;20900;-66
2023/07/28 05:36:26;;;;;;;2.92;1.30;;;22.90;65.20;;;;;;2528189;54;21013;-69
2023/07/28 05:38:56;;;;;;;2.25;1.05;;;22.90;65.30;;;;;;2292011;55;20905;-68
2023/07/28 05:41:25;;;;;;;2.58;1.20;;;22.90;65.40;;;;;;2526718;54;21398;-66
2023/07/28 05:43:53;;;;;;;2.87;1.37;;;22.90;65.50;;;;;;2525649;54;20912;-68
2023/07/28 05:46:23;;;;;;;2.50;1.20;;;22.90;65.50;;;;;;2292082;55;20969;-67
2023/07/28 05:48:56;;;;;;;2.22;1.05;;;22.90;65.60;;;;;;2290862;55;21025;-67
2023/07/28 05:51:22;;;;;;;2.83;1.42;;;22.90;65.70;;;;;;2283846;55;20973;-68
2023/07/28 05:53:52;;;;;;;2.45;1.17;;;22.90;65.70;;;;;;2283747;55;20984;-68
2023/07/28 05:56:18;;;;;;;2.83;1.25;;;22.90;65.70;;;;;;2527094;54;20980;-66
2023/07/28 05:58:46;;;;;;;2.05;1.00;;;22.90;65.70;;;;;;2527120;54;20933;-67
2023/07/28 06:01:12;;;;;;;2.37;1.20;;;23.00;65.90;;;;;;2528134;54;20953;-69
2023/07/28 06:03:39;;;;;;;2.45;1.08;;;23.00;65.90;;;;;;2526806;54;20988;-67
2023/07/28 06:06:07;;;;;;;3.20;0.90;;;23.00;65.90;;;;;;2527471;54;21947;-69
2023/07/28 06:08:36;;;;;;;2.75;1.37;;;22.90;65.90;;;;;;2286573;55;20925;-69
2023/07/28 06:11:07;;;;;;;2.33;1.00;;;22.90;66.00;;;;;;2274068;55;21001;-67
2023/07/28 06:13:33;;;;;;;2.20;1.10;;;23.00;66.00;;;;;;2282254;55;20936;-67
2023/07/28 06:15:59;;;;;;;2.60;1.15;;;23.00;66.10;;;;;;2527313;54;21008;-67
2023/07/28 06:18:26;;;;;;;2.12;1.05;;;23.00;66.10;;;;;;2292075;55;21017;-67
2023/07/28 06:20:53;;;;;;;2.05;1.10;;;23.00;66.20;;;;;;2505611;54;20953;-68
2023/07/28 06:23:19;;;;;;;2.40;1.05;;;23.10;66.30;;;;;;2292173;55;20952;-66
2023/07/28 06:25:48;;;;;;;2.83;1.40;;;23.10;66.30;;;;;;2527447;54;21826;-67
2023/07/28 06:28:16;;;;;;;2.83;1.12;;;23.10;66.30;;;;;;2281701;55;21053;-67
2023/07/28 06:30:44;;;;;;;2.60;1.23;;;23.10;66.30;;;;;;2517424;54;21770;-67
2023/07/28 06:33:11;;;;;;;2.50;1.27;;;23.10;66.30;;;;;;2291407;56;20920;-67
2023/07/28 06:35:37;;;;;;;2.75;1.33;;;23.10;66.30;;;;;;2527324;54;20932;-67
2023/07/28 06:38:03;;;;;;;3.80;1.30;;;23.10;66.30;;;;;;2527019;54;21048;-67
2023/07/28 06:40:29;;;;;;;2.95;1.25;;;23.10;66.40;;;;;;2291224;55;20999;-66
2023/07/28 06:42:56;;;;;;;2.10;1.02;;;23.20;66.40;;;;;;2526978;54;21667;-67
2023/07/28 06:45:25;;;;;;;2.72;1.10;;;23.20;66.40;;;;;;2526965;54;21732;-67
2023/07/28 06:47:51;;;;;;;2.78;1.25;;;23.20;66.50;;;;;;2526251;54;21060;-67
2023/07/28 06:50:18;;;;;;;8.75;2.72;;;23.20;66.40;;;;;;2527572;54;21390;-65
2023/07/28 06:52:48;;;;;;;2.47;1.10;;;23.20;66.40;;;;;;2291624;55;20952;-67
2023/07/28 06:55:16;;;;;;;3.45;1.12;;;23.30;66.50;;;;;;2527397;54;21008;-69
2023/07/28 06:57:51;;;;;;;2.80;1.27;;;23.30;66.60;;;;;;2527494;54;20900;-68
2023/07/28 07:00:19;;;;;;;2.80;1.40;;;23.30;66.40;;;;;;2527757;54;21035;-68
2023/07/28 07:02:46;;;;;;;3.28;1.40;;;23.30;66.60;;;;;;2292177;55;20925;-69
2023/07/28 07:05:12;;;;;;;2.58;1.25;;;23.30;66.70;;;;;;2287914;55;20993;-69
2023/07/28 07:07:40;;;;;;;2.58;1.12;;;23.40;66.80;;;;;;2277236;55;20921;-67
2023/07/28 07:10:08;;;;;;;2.22;1.12;;;23.40;66.80;;;;;;2292385;55;21358;-67
2023/07/28 07:12:36;;;;;;;2.40;1.17;;;23.40;66.80;;;;;;2292578;55;20948;-67
2023/07/28 07:15:07;;;;;;;2.33;1.10;;;23.30;66.70;;;;;;2527909;54;20933;-67
2023/07/28 07:17:33;;;;;;;2.55;1.27;;;23.50;67.00;;;;;;2291934;55;21764;-66
2023/07/28 07:19:59;;;;;;;2.75;1.42;;;23.50;67.00;;;;;;2291712;55;21030;-68
2023/07/28 07:22:27;;;;;;;4.05;1.80;;;23.60;67.10;;;;;;2292651;55;20900;-67
2023/07/28 07:24:53;;;;;;;4.68;2.53;;;23.60;67.10;;;;;;2292078;55;21043;-69
2023/07/28 07:27:21;;;;;;;3.85;2.10;;;23.60;67.10;;;;;;2504743;54;20921;-67
2023/07/28 07:29:47;;;;;;;3.87;1.77;;;23.70;67.20;;;;;;2527055;54;21050;-67
2023/07/28 07:32:15;;;;;;;3.78;1.67;;;23.70;67.10;;;;;;2527813;54;21000;-68
2023/07/28 07:34:42;;;;;;;3.20;1.73;;;23.80;67.00;;;;;;2289456;55;20978;-67
2023/07/28 07:37:09;;;;;;;3.20;1.52;;;23.80;66.90;;;;;;2277548;55;21011;-67
2023/07/28 07:39:37;;;;;;;2.53;1.40;;;23.80;66.90;;;;;;2284434;55;21144;-69
2023/07/28 07:42:04;;;;;;;3.42;1.50;;;23.90;66.90;;;;;;2514933;54;21780;-68
2023/07/28 07:44:31;;;;;;;3.00;1.58;;;23.90;66.90;;;;;;2292772;55;21944;-67
2023/07/28 07:47:10;;;;;;;2.75;1.55;;;23.90;66.80;;;;;;2527091;54;21700;-67
2023/07/28 07:49:37;;;;;;;3.03;1.48;;;24.00;66.90;;;;;;2527878;54;20896;-69
2023/07/28 07:52:05;;;;;;;2.92;1.55;;;23.90;66.80;;;;;;2527104;54;20925;-68
2023/07/28 07:54:33;;;;;;;2.60;1.40;;;24.10;67.00;;;;;;2527582;54;20968;-67
2023/07/28 07:56:59;;;;;;;3.85;1.33;;;24.20;67.20;;;;;;2292576;56;21718;-68
2023/07/28 07:59:28;;;;;;;2.65;1.37;;;24.20;67.10;;;;;;2527736;54;20909;-68
2023/07/28 08:02:00;;;;;;;4.25;1.65;;;24.30;67.20;;;;;;2527589;54;20996;-68
2023/07/28 08:04:31;;;;;;;3.87;1.42;;;24.30;67.10;;;;;;2500928;54;21005;-69
2023/07/28 08:07:00;;;;;;;2.97;1.40;;;24.40;67.00;;;;;;2292803;55;21217;-70
2023/07/28 08:09:27;;;;;;;3.10;1.87;;;24.50;67.10;;;;;;2293108;55;20963;-68
2023/07/28 08:11:54;;;;;;;2.78;1.40;;;24.50;67.10;;;;;;2527256;54;20967;-67
2023/07/28 08:14:20;;;;;;;2.70;1.35;;;24.60;67.00;;;;;;2276155;55;21049;-68
2023/07/28 08:16:46;;;;;;;2.28;1.12;;;24.70;67.00;;;;;;2288085;55;20964;-69
2023/07/28 08:19:13;;;;;;;2.50;1.20;;;24.70;66.80;;;;;;2526960;54;21374;-68
2023/07/28 08:21:39;;;;;;;2.40;1.30;;;24.80;66.80;;;;;;2527096;54;20897;-68
2023/07/28 08:24:05;;;;;;;2.90;1.60;;;24.80;66.70;;;;;;2527870;54;20945;-68
2023/07/28 08:26:32;;;;;;;3.87;1.40;;;24.90;66.60;;;;;;2500548;54;20968;-68
2023/07/28 08:28:58;;;;;;;2.58;1.20;;;25.00;66.60;;;;;;2526585;54;20949;-67
2023/07/28 08:31:24;;;;;;;2.60;1.35;;;25.00;66.60;;;;;;2527972;54;20944;-68
2023/07/28 08:33:51;;;;;;;2.78;1.40;;;25.10;66.70;;;;;;2519167;54;21022;-67
2023/07/28 08:36:19;;;;;;;3.45;1.55;;;25.20;66.60;;;;;;2510097;54;20980;-67
2023/07/28 08:38:46;;;;;;;3.90;1.65;;;25.20;66.40;;;;;;2291730;55;20969;-66
2023/07/28 08:41:15;;;;;;;2.83;1.52;;;25.30;66.30;;;;;;2526960;54;20941;-68
2023/07/28 08:43:42;;;;;;;2.83;1.37;;;25.40;66.00;;;;;;2526871;54;20936;-67
2023/07/28 08:46:08;;;;;;;2.60;1.40;;;25.50;66.10;;;;;;2273916;55;20958;-67
2023/07/28 08:48:34;;;;;;;2.80;1.48;;;25.50;66.10;;;;;;2527356;54;20920;-68
2023/07/28 08:51:01;;;;;;;2.53;1.37;;;25.60;66.10;;;;;;2527144;54;20941;-69
2023/07/28 08:53:28;;;;;;;3.08;1.48;;;25.70;66.00;;;;;;2526686;54;21047;-68
2023/07/28 08:55:54;;;;;;;3.62;1.50;;;25.80;65.70;;;;;;2291966;56;21015;-68
2023/07/28 08:58:21;;;;;;;3.67;1.80;;;25.80;66.30;;;;;;2527206;54;20956;-67
2023/07/28 09:00:51;;;;;;;2.90;1.62;;;25.90;65.40;;;;;;2292494;55;20936;-69
2023/07/28 09:03:18;;;;;;;3.05;1.62;;;26.00;65.20;;;;;;2292415;55;20952;-68
2023/07/28 09:05:46;;;;;;;2.75;1.25;;;26.00;65.20;;;;;;2292426;55;20952;-68
2023/07/28 09:08:15;;;;;;;3.33;1.70;;;26.10;65.30;;;;;;2528368;54;20912;-68
2023/07/28 09:10:46;;;;;;;3.12;1.50;;;26.20;65.10;;;;;;2527453;54;20996;-69
2023/07/28 09:13:13;;;;;;;5.97;1.52;;;26.20;65.30;;;;;;2527761;54;20952;-68
2023/07/28 09:15:40;;;;;;;2.95;1.50;;;26.30;65.90;;;;;;2527551;54;21007;-68
2023/07/28 09:18:13;;;;;;;3.08;1.40;;;26.40;65.20;;;;;;2508881;54;21006;-67
2023/07/28 09:20:41;;;;;;;2.58;1.40;;;26.40;64.70;;;;;;2287466;55;21044;-68
2023/07/28 09:23:08;;;;;;;4.35;1.40;;;26.50;64.70;;;;;;2291862;55;20948;-67
2023/07/28 09:25:35;;;;;;;4.22;2.00;;;26.60;64.40;;;;;;2292634;55;20925;-68
2023/07/28 09:28:02;;;;;;;4.87;1.70;;;26.60;64.30;;;;;;2291799;55;20973;-68
2023/07/28 09:30:51;;;;;;;3.03;1.55;;;26.70;64.20;;;;;;2293441;55;20984;-67
2023/07/28 09:33:30;;;;;;;3.20;1.70;;;26.70;63.50;;;;;;2292493;55;21224;-69
2023/07/28 09:35:57;;;;;;;2.92;1.33;;;26.70;63.00;;;;;;2292265;55;20945;-66
2023/07/28 09:38:24;;;;;;;3.72;1.67;;;26.80;63.90;;;;;;2292659;55;20925;-69
2023/07/28 09:40:51;;;;;;;3.25;1.30;;;26.80;63.60;;;;;;2511578;54;21021;-67
2023/07/28 09:43:17;;;;;;;2.60;1.20;;;26.80;63.40;;;;;;2515314;54;20913;-68
2023/07/28 09:45:46;;;;;;;2.37;1.30;;;26.80;63.40;;;;;;2501951;54;21056;-67
2023/07/28 09:48:15;;;;;;;3.05;1.60;;;26.90;63.50;;;;;;2526812;54;20944;-68
2023/07/28 09:50:41;;;;;;;2.87;1.40;;;26.80;63.40;;;;;;2514072;54;21001;-69
2023/07/28 09:53:11;;;;;;;3.12;1.25;;;26.90;63.30;;;;;;2514902;54;20916;-67
2023/07/28 09:55:39;;;;;;;3.12;1.33;;;26.90;63.40;;;;;;2514843;54;21319;-67
2023/07/28 09:58:07;;;;;;;2.40;1.15;;;27.00;63.20;;;;;;2513737;54;20984;-67
2023/07/28 10:00:33;;;;;;;2.87;1.40;;;27.00;63.30;;;;;;2527470;54;20940;-68
2023/07/28 10:03:01;;;;;;;2.70;1.40;;;27.00;63.50;;;;;;2526708;54;21110;-67
2023/07/28 10:05:29;;;;;;;2.20;1.15;;;27.00;63.60;;;;;;2287068;55;20977;-69
2023/07/28 10:07:59;;;;;;;3.03;1.40;;;27.00;63.80;;;;;;2512016;54;21025;-68
2023/07/28 10:10:26;;;;;;;2.92;1.58;;;27.10;63.60;;;;;;2528210;54;20890;-67
2023/07/28 10:12:55;;;;;;;3.05;1.60;;;27.10;63.60;;;;;;2527908;54;21264;-67
2023/07/28 10:15:31;;;;;;;3.12;1.70;;;27.10;63.20;;;;;;2293094;55;21460;-67
2023/07/28 10:17:58;;;;;;;2.97;1.48;;;27.20;62.80;;;;;;2292360;55;20901;-70
2023/07/28 10:20:40;;;;;;;2.33;1.30;;;27.20;63.10;;;;;;2293004;55;20904;-68
2023/07/28 10:23:22;;;;;;;2.97;1.50;;;27.20;62.50;;;;;;2527945;54;20948;-67
2023/07/28 10:25:56;;;;;;;3.08;1.50;;;27.20;62.60;;;;;;2528248;54;20968;-67
2023/07/28 10:28:45;;;;;;;3.45;1.50;;;27.20;62.50;;;;;;2528121;54;21828;-69
2023/07/28 10:31:12;;;;;;;2.70;1.23;;;27.30;62.60;;;;;;2528379;54;20988;-70
2023/07/28 10:33:44;;;;;;;2.83;1.40;;;27.30;63.30;;;;;;2527868;54;20916;-71
2023/07/28 10:36:35;;;;;;;3.30;1.67;;;27.30;63.10;;;;;;2527773;54;20912;-68
2023/07/28 10:39:15;;;;;;;2.70;1.30;;;27.30;63.10;;;;;;2527887;54;20897;-70
2023/07/28 10:42:09;;;;;;;2.65;1.35;;;27.30;63.00;;;;;;2291526;55;20992;-67
2023/07/28 10:44:36;;;;;;;2.85;1.50;;;27.40;62.50;;;;;;2292539;55;20924;-67
2023/07/28 10:47:13;;;;;;;2.80;1.50;;;27.40;63.20;;;;;;2528067;54;21007;-70
2023/07/28 10:49:39;;;;;;;3.03;1.37;;;27.40;62.70;;;;;;2274103;55;20923;-67
2023/07/28 10:52:05;;;;;;;3.78;1.37;;;27.40;63.20;;;;;;2292106;55;20936;-68
2023/07/28 10:54:33;;;;;;;3.03;1.60;;;27.40;63.10;;;;;;2292821;55;20920;-68
2023/07/28 10:57:04;;;;;;;3.67;1.75;;;27.50;62.90;;;;;;2518042;54;20958;-69
2023/07/28 10:59:31;;;;;;;4.40;1.48;;;27.50;62.80;;;;;;2513097;54;20959;-69
2023/07/28 11:01:58;;;;;;;3.65;2.10;;;27.50;62.80;;;;;;2292608;55;20932;-69
2023/07/28 11:04:24;;;;;;;3.35;1.50;;;27.50;62.60;;;;;;2527705;54;20888;-70
2023/07/28 11:06:53;;;;;;;4.62;1.30;;;27.50;62.60;;;;;;2292959;56;20956;-66
2023/07/28 11:09:22;;;;;;;2.72;1.23;;;27.60;62.60;;;;;;2292723;55;20993;-70
2023/07/28 11:11:49;;;;;;;2.90;1.40;;;27.60;62.70;;;;;;2509028;54;21845;-67
2023/07/28 11:14:16;;;;;;;2.40;1.15;;;27.60;62.50;;;;;;2281866;55;21448;-67
2023/07/28 11:16:44;;;;;;;3.10;1.50;;;27.60;62.50;;;;;;2291941;56;20924;-68
2023/07/28 11:19:13;;;;;;;3.12;1.50;;;27.60;62.30;;;;;;2503680;54;21057;-70
2023/07/28 11:21:40;;;;;;;2.50;1.30;;;27.60;62.30;;;;;;2506573;54;20980;-67
2023/07/28 11:24:10;;;;;;;4.65;1.62;;;27.70;62.20;;;;;;2292186;55;20948;-67
2023/07/28 11:26:38;;;;;;;3.25;1.48;;;27.70;61.80;;;;;;2291475;55;20952;-67
2023/07/28 11:29:05;;;;;;;2.67;1.37;;;27.70;62.10;;;;;;2522565;54;20984;-68
2023/07/28 11:31:32;;;;;;;2.60;1.20;;;27.70;61.90;;;;;;2273282;55;21073;-69
2023/07/28 11:33:58;;;;;;;3.03;1.58;;;27.70;61.90;;;;;;2288483;55;20948;-69
2023/07/28 11:36:26;;;;;;;2.80;1.30;;;27.70;61.90;;;;;;2291832;55;20944;-68
2023/07/28 11:38:54;;;;;;;3.17;1.48;;;27.70;62.00;;;;;;2292349;55;21552;-68
2023/07/28 11:41:20;;;;;;;3.28;1.00;;;27.70;62.10;;;;;;2292028;56;20991;-67
2023/07/28 11:43:49;;;;;;;2.58;1.15;;;27.70;62.10;;;;;;2291990;55;20908;-69
2023/07/28 11:46:41;;;;;;;3.05;1.23;;;27.70;62.20;;;;;;2284122;55;20930;-68
2023/07/28 11:49:24;;;;;;;3.55;1.25;;;27.70;61.50;;;;;;2519180;54;20964;-68
2023/07/28 11:51:52;;;;;;;3.90;1.40;;;27.70;61.90;;;;;;2278272;55;20997;-67
2023/07/28 11:54:21;;;;;;;3.10;1.73;;;27.60;62.10;;;;;;2287397;55;20968;-69
2023/07/28 11:56:48;;;;;;;3.28;1.65;;;27.60;62.00;;;;;;2292412;56;21457;-69
2023/07/28 11:59:15;;;;;;;3.03;1.40;;;27.60;61.80;;;;;;2515018;54;21037;-69
2023/07/28 12:01:57;;;;;;;2.70;1.40;;;27.50;61.60;;;;;;2280096;55;20964;-67
2023/07/28 12:04:31;;;;;;;3.85;1.50;;;27.50;60.90;;;;;;2527058;54;20908;-68
2023/07/28 12:07:13;;;;;;;6.82;1.65;;;27.40;62.10;;;;;;2527171;54;21828;-69
2023/07/28 12:09:51;;;;;;;2.78;1.33;;;27.30;61.40;;;;;;2527125;54;20924;-69
2023/07/28 12:12:22;;;;;;;2.35;1.20;;;27.30;61.30;;;;;;2527378;54;21325;-68
2023/07/28 12:14:54;;;;;;;2.85;1.35;;;27.20;61.80;;;;;;2291379;55;20948;-68
2023/07/28 12:17:28;;;;;;;5.32;1.40;;;27.10;61.80;;;;;;2527164;54;20946;-69
2023/07/28 12:21:17;;;;;;;2.80;1.23;;;27.00;62.10;;;;;;2526968;54;20928;-69
2023/07/28 12:23:43;;;;;;;2.50;1.27;;;27.00;62.40;;;;;;2276025;55;21003;-70
2023/07/28 12:26:12;;;;;;;2.53;1.30;;;26.90;63.30;;;;;;2526532;54;21393;-67
2023/07/28 12:28:40;;;;;;;2.58;1.33;;;26.90;62.80;;;;;;2291964;55;20896;-68
2023/07/28 12:31:09;;;;;;;3.22;1.55;;;26.90;63.60;;;;;;2291125;55;20992;-68
2023/07/28 12:33:39;;;;;;;2.33;1.20;;;26.80;62.90;;;;;;2526697;54;20924;-70
2023/07/28 12:36:07;;;;;;;3.05;1.60;;;26.80;63.10;;;;;;2291752;56;21023;-66
2023/07/28 12:38:41;;;;;;;2.55;1.25;;;26.80;63.30;;;;;;2526799;54;20920;-69
2023/07/28 12:41:08;;;;;;;3.03;1.55;;;26.70;63.30;;;;;;2291368;56;21477;-69
2023/07/28 12:43:35;;;;;;;3.30;1.65;;;26.70;63.60;;;;;;2292161;55;20932;-69
2023/07/28 12:46:04;;;;;;;3.40;1.75;;;26.70;63.70;;;;;;2526783;54;20996;-69
2023/07/28 12:48:36;;;;;;;2.60;1.23;;;26.70;63.80;;;;;;2526843;54;20904;-69
2023/07/28 12:51:13;;;;;;;2.47;1.23;;;26.70;63.90;;;;;;2291879;55;21730;-69
2023/07/28 12:53:40;;;;;;;2.78;1.58;;;26.70;64.00;;;;;;2286291;55;21478;-68
2023/07/28 12:56:06;;;;;;;3.08;1.70;;;26.70;64.00;;;;;;2271903;55;21125;-69
2023/07/28 12:58:33;;;;;;;2.90;1.37;;;26.70;64.00;;;;;;2273711;55;20997;-68